Terminal Aerodrome Forecast
Issued by NWS Sterling, VA

Home | Current Version | Previous Version | Text Only | Print | Product List | Glossary On
Versions: 1 2 3 4 5 6 7 8 9 10 11 12 13 14 15 16 17 18 19 20 21 22
000
FTUS41 KLWX 292300 RRA
TAFBWI
TAF
KBWI 292345Z 3000/3106 15006KT P6SM OVC050
     FM300600 21009KT P6SM OVC050
     FM300800 26009KT P6SM BKN050
     FM301100 29013KT P6SM BKN050
     FM301500 30018G27KT P6SM BKN050
     FM302200 30022G33KT P6SM SCT050=

USA.gov is the U.S. government's official web portal to all federal, state and local government web resources and services.